WARNING - Change wsUserSettings.php: $SITE["topfolder"] from : public_html./ to: ./
Iedere zaterdag na 11 uur op radio zuidwest.

Onweer radar Meer informatie blitzortung!


Regen radar Meer informatie rain snow radar


Bezoek onze andere website:

Template documentation
and downloads


U vindt ons ook hier:

Het Weer Aktueel

UK Metoffice

European Weather Network

WeatherCloud

Weather Underground

Austria Weather Network

AWEKAS

Citizen Weather Observer Program (CWOP)

HAMweather, WeatherForYou, PWS Weather

Wetterpage 24

Roosendaal nieuws

VWKWEB

RadioZuidWestFM



METAR rapporten vliegvelden

   
EHWO - Bergen op Zoom
Gewijzigd: 03-07-2022 07:25
Grotendeels bewolkt  
Grotendeels bewolkt  
   Wind: WZW 14.8 km/h
Wind: WZW 14.8 km/h
Temperatuur: 16°C
Dauwpunt: 13°C
Vochtigheid: 83%
Barometer: 1018 hPa
Bewolking: Grotendeels bewolkt
Zicht: meer dan 10 km
Bewolking: Gedeeltelijk bewolkt 6200 ft,
Grotendeels bewolkt 6900 ft,
Grotendeels bewolkt 7400 ft
EHWO 030525Z AUTO 24008KT 220V280 9999 SCT062 BKN069 BKN074 16/13 Q1018 BLU
EHWO - Woensdrecht
Gewijzigd: 03-07-2022 07:25
Grotendeels bewolkt  
Grotendeels bewolkt  
   Wind: WZW 14.8 km/h
Wind: WZW 14.8 km/h
Temperatuur: 16°C
Dauwpunt: 13°C
Vochtigheid: 83%
Barometer: 1018 hPa
Bewolking: Grotendeels bewolkt
Zicht: meer dan 10 km
Bewolking: Gedeeltelijk bewolkt 6200 ft,
Grotendeels bewolkt 6900 ft,
Grotendeels bewolkt 7400 ft
EHWO 030525Z AUTO 24008KT 220V280 9999 SCT062 BKN069 BKN074 16/13 Q1018 BLU
EHWO - Steenbergen
Gewijzigd: 03-07-2022 07:25
Grotendeels bewolkt  
Grotendeels bewolkt  
   Wind: WZW 14.8 km/h
Wind: WZW 14.8 km/h
Temperatuur: 16°C
Dauwpunt: 13°C
Vochtigheid: 83%
Barometer: 1018 hPa
Bewolking: Grotendeels bewolkt
Zicht: meer dan 10 km
Bewolking: Gedeeltelijk bewolkt 6200 ft,
Grotendeels bewolkt 6900 ft,
Grotendeels bewolkt 7400 ft
EHWO 030525Z AUTO 24008KT 220V280 9999 SCT062 BKN069 BKN074 16/13 Q1018 BLU
EHWO - Oud-Gastel
Gewijzigd: 03-07-2022 07:25
Grotendeels bewolkt  
Grotendeels bewolkt  
   Wind: WZW 14.8 km/h
Wind: WZW 14.8 km/h
Temperatuur: 16°C
Dauwpunt: 13°C
Vochtigheid: 83%
Barometer: 1018 hPa
Bewolking: Grotendeels bewolkt
Zicht: meer dan 10 km
Bewolking: Gedeeltelijk bewolkt 6200 ft,
Grotendeels bewolkt 6900 ft,
Grotendeels bewolkt 7400 ft
EHWO 030525Z AUTO 24008KT 220V280 9999 SCT062 BKN069 BKN074 16/13 Q1018 BLU
EHWO - Oudenbosch
Gewijzigd: 03-07-2022 07:25
Grotendeels bewolkt  
Grotendeels bewolkt  
   Wind: WZW 14.8 km/h
Wind: WZW 14.8 km/h
Temperatuur: 16°C
Dauwpunt: 13°C
Vochtigheid: 83%
Barometer: 1018 hPa
Bewolking: Grotendeels bewolkt
Zicht: meer dan 10 km
Bewolking: Gedeeltelijk bewolkt 6200 ft,
Grotendeels bewolkt 6900 ft,
Grotendeels bewolkt 7400 ft
EHWO 030525Z AUTO 24008KT 220V280 9999 SCT062 BKN069 BKN074 16/13 Q1018 BLU
EHWO - Rucphen
Gewijzigd: 03-07-2022 07:25
Grotendeels bewolkt  
Grotendeels bewolkt  
   Wind: WZW 14.8 km/h
Wind: WZW 14.8 km/h
Temperatuur: 16°C
Dauwpunt: 13°C
Vochtigheid: 83%
Barometer: 1018 hPa
Bewolking: Grotendeels bewolkt
Zicht: meer dan 10 km
Bewolking: Gedeeltelijk bewolkt 6200 ft,
Grotendeels bewolkt 6900 ft,
Grotendeels bewolkt 7400 ft
EHWO 030525Z AUTO 24008KT 220V280 9999 SCT062 BKN069 BKN074 16/13 Q1018 BLU
EHWO - Bergen op Zoom
Gewijzigd: 03-07-2022 07:25
Grotendeels bewolkt  
Grotendeels bewolkt  
   Wind: WZW 14.8 km/h
Wind: WZW 14.8 km/h
Temperatuur: 16°C
Dauwpunt: 13°C
Vochtigheid: 83%
Barometer: 1018 hPa
Bewolking: Grotendeels bewolkt
Zicht: meer dan 10 km
Bewolking: Gedeeltelijk bewolkt 6200 ft,
Grotendeels bewolkt 6900 ft,
Grotendeels bewolkt 7400 ft
EHWO 030525Z AUTO 24008KT 220V280 9999 SCT062 BKN069 BKN074 16/13 Q1018 BLU
EHWO - Fijnaart
Gewijzigd: 03-07-2022 07:25
Grotendeels bewolkt  
Grotendeels bewolkt  
   Wind: WZW 14.8 km/h
Wind: WZW 14.8 km/h
Temperatuur: 16°C
Dauwpunt: 13°C
Vochtigheid: 83%
Barometer: 1018 hPa
Bewolking: Grotendeels bewolkt
Zicht: meer dan 10 km
Bewolking: Gedeeltelijk bewolkt 6200 ft,
Grotendeels bewolkt 6900 ft,
Grotendeels bewolkt 7400 ft
EHWO 030525Z AUTO 24008KT 220V280 9999 SCT062 BKN069 BKN074 16/13 Q1018 BLU
EHWO - Ossendrecht
Gewijzigd: 03-07-2022 07:25
Grotendeels bewolkt  
Grotendeels bewolkt  
   Wind: WZW 14.8 km/h
Wind: WZW 14.8 km/h
Temperatuur: 16°C
Dauwpunt: 13°C
Vochtigheid: 83%
Barometer: 1018 hPa
Bewolking: Grotendeels bewolkt
Zicht: meer dan 10 km
Bewolking: Gedeeltelijk bewolkt 6200 ft,
Grotendeels bewolkt 6900 ft,
Grotendeels bewolkt 7400 ft
EHWO 030525Z AUTO 24008KT 220V280 9999 SCT062 BKN069 BKN074 16/13 Q1018 BLU

Script ontwikkeld door  Saratoga-weather.org Aangepast voor de template door  Weerstation Leuven

Apparatuur in gebruik:

Weerstation
Davis VP2

Weerprogramma
Meteobridge

Weercomputer
Shuttle

Webleverancier
WeservIT

Davis VP2

Meteobridge

Shuttle

WeservIT